sensor_id;sensor_type;location;lat;lon;timestamp;pressure;altitude;pressure_sealevel;temperature;humidity
28432;BME280;15664;51.302;7.744;2023-02-15T00:01:20;83495.28;;;-146.98;70.69
28432;BME280;15664;51.302;7.744;2023-02-15T00:03:49;83487.13;;;-146.98;70.92
28432;BME280;15664;51.302;7.744;2023-02-15T00:06:16;83487.13;;;-146.98;71.43
28432;BME280;15664;51.302;7.744;2023-02-15T00:08:42;83466.75;;;-146.98;71.55
28432;BME280;15664;51.302;7.744;2023-02-15T00:11:09;83523.78;;;-146.98;71.60
28432;BME280;15664;51.302;7.744;2023-02-15T00:13:35;83495.28;;;-146.98;71.63
28432;BME280;15664;51.302;7.744;2023-02-15T00:16:06;83529.91;;;-146.98;71.99
28432;BME280;15664;51.302;7.744;2023-02-15T00:18:33;83505.47;;;-146.98;71.87
28432;BME280;15664;51.302;7.744;2023-02-15T00:21:03;83466.75;;;-146.98;72.01
28432;BME280;15664;51.302;7.744;2023-02-15T00:23:29;83491.19;;;-146.98;72.30
28432;BME280;15664;51.302;7.744;2023-02-15T00:26:15;83505.47;;;-146.98;72.17
28432;BME280;15664;51.302;7.744;2023-02-15T00:28:42;83521.75;;;-146.98;72.16
28432;BME280;15664;51.302;7.744;2023-02-15T00:31:09;83540.06;;;-146.98;72.22
28432;BME280;15664;51.302;7.744;2023-02-15T00:33:36;83503.41;;;-146.98;72.57
28432;BME280;15664;51.302;7.744;2023-02-15T00:36:03;83527.84;;;-146.98;73.33
28432;BME280;15664;51.302;7.744;2023-02-15T00:38:30;83481.03;;;-146.98;73.62
28432;BME280;15664;51.302;7.744;2023-02-15T00:40:58;83533.97;;;-146.98;74.04
28432;BME280;15664;51.302;7.744;2023-02-15T00:43:24;83521.75;;;-146.98;73.79
28432;BME280;15664;51.302;7.744;2023-02-15T00:45:50;83540.06;;;-146.98;74.06
28432;BME280;15664;51.302;7.744;2023-02-15T00:48:17;83525.81;;;-146.98;74.06
28432;BME280;15664;51.302;7.744;2023-02-15T00:50:48;83536.00;;;-146.98;73.53
28432;BME280;15664;51.302;7.744;2023-02-15T00:53:13;83515.63;;;-146.98;73.32
28432;BME280;15664;51.302;7.744;2023-02-15T00:55:39;83501.38;;;-146.98;73.34
28432;BME280;15664;51.302;7.744;2023-02-15T00:58:06;83552.31;;;-146.98;73.43
28432;BME280;15664;51.302;7.744;2023-02-15T01:00:32;83536.00;;;-146.98;73.69
28432;BME280;15664;51.302;7.744;2023-02-15T01:02:57;83519.72;;;-146.98;74.02
28432;BME280;15664;51.302;7.744;2023-02-15T01:05:22;83531.94;;;-146.98;74.34
28432;BME280;15664;51.302;7.744;2023-02-15T01:07:48;83570.63;;;-146.98;74.44
28432;BME280;15664;51.302;7.744;2023-02-15T01:10:14;83527.84;;;-146.98;74.47
28432;BME280;15664;51.302;7.744;2023-02-15T01:12:39;83519.72;;;-146.98;74.57
28432;BME280;15664;51.302;7.744;2023-02-15T01:15:05;83521.75;;;-146.98;74.94
28432;BME280;15664;51.302;7.744;2023-02-15T01:17:31;83560.44;;;-146.98;75.04
28432;BME280;15664;51.302;7.744;2023-02-15T01:19:57;83556.38;;;-146.98;75.19
28432;BME280;15664;51.302;7.744;2023-02-15T01:22:23;83560.44;;;-146.98;74.97
28432;BME280;15664;51.302;7.744;2023-02-15T01:24:51;83562.47;;;-146.98;75.19
28432;BME280;15664;51.302;7.744;2023-02-15T01:27:17;83607.28;;;-146.98;75.30
28432;BME280;15664;51.302;7.744;2023-02-15T01:29:42;83546.19;;;-146.98;75.62
28432;BME280;15664;51.302;7.744;2023-02-15T01:32:08;83529.91;;;-146.98;75.67
28432;BME280;15664;51.302;7.744;2023-02-15T01:34:34;83603.22;;;-146.98;76.05
28432;BME280;15664;51.302;7.744;2023-02-15T01:36:59;83548.22;;;-146.98;76.42
28432;BME280;15664;51.302;7.744;2023-02-15T01:39:25;83574.69;;;-146.98;76.50
28432;BME280;15664;51.302;7.744;2023-02-15T01:41:50;83591.00;;;-146.98;76.51
28432;BME280;15664;51.302;7.744;2023-02-15T01:47:24;83580.81;;;-146.98;76.66
28432;BME280;15664;51.302;7.744;2023-02-15T01:50:02;83560.44;;;-146.98;76.99
28432;BME280;15664;51.302;7.744;2023-02-15T01:52:29;83580.81;;;-146.98;77.38
28432;BME280;15664;51.302;7.744;2023-02-15T01:54:55;83560.44;;;-146.98;77.36
28432;BME280;15664;51.302;7.744;2023-02-15T01:57:23;83574.69;;;-146.98;77.74
28432;BME280;15664;51.302;7.744;2023-02-15T01:59:56;83572.66;;;-146.98;78.15
28432;BME280;15664;51.302;7.744;2023-02-15T02:02:24;83584.88;;;-146.98;78.77
28432;BME280;15664;51.302;7.744;2023-02-15T02:04:54;83550.25;;;-146.98;78.64
28432;BME280;15664;51.302;7.744;2023-02-15T02:07:24;83603.22;;;-146.98;78.84
28432;BME280;15664;51.302;7.744;2023-02-15T02:09:51;83568.59;;;-146.98;78.98
28432;BME280;15664;51.302;7.744;2023-02-15T02:12:18;83570.63;;;-146.98;79.23
28432;BME280;15664;51.302;7.744;2023-02-15T02:14:45;83558.41;;;-146.98;79.83
28432;BME280;15664;51.302;7.744;2023-02-15T02:34:25;83582.84;;;-146.98;79.76
28432;BME280;15664;51.302;7.744;2023-02-15T02:37:19;83637.84;;;-146.98;79.99
28432;BME280;15664;51.302;7.744;2023-02-15T02:40:20;83629.69;;;-146.98;80.42
28432;BME280;15664;51.302;7.744;2023-02-15T02:42:58;83544.16;;;-146.98;80.67
28432;BME280;15664;51.302;7.744;2023-02-15T02:46:02;83621.53;;;-146.98;80.70
28432;BME280;15664;51.302;7.744;2023-02-15T02:48:22;83538.03;;;-146.98;81.10
28432;BME280;15664;51.302;7.744;2023-02-15T02:50:49;83572.66;;;-146.98;81.30
28432;BME280;15664;51.302;7.744;2023-02-15T02:53:15;83586.91;;;-146.98;81.37
28432;BME280;15664;51.302;7.744;2023-02-15T02:56:11;83576.75;;;-146.98;82.01
28432;BME280;15664;51.302;7.744;2023-02-15T02:58:45;83568.59;;;-146.98;81.91
28432;BME280;15664;51.302;7.744;2023-02-15T03:01:20;83584.88;;;-146.98;81.79
28432;BME280;15664;51.302;7.744;2023-02-15T03:03:55;83588.97;;;-146.98;82.15
28432;BME280;15664;51.302;7.744;2023-02-15T03:06:30;83554.34;;;-146.98;82.81
28432;BME280;15664;51.302;7.744;2023-02-15T03:09:08;83617.47;;;-146.98;82.74
28432;BME280;15664;51.302;7.744;2023-02-15T03:11:42;83544.16;;;-146.98;82.76
28432;BME280;15664;51.302;7.744;2023-02-15T03:14:09;83621.53;;;-146.98;82.57
28432;BME280;15664;51.302;7.744;2023-02-15T03:16:36;83641.91;;;-146.98;82.14
28432;BME280;15664;51.302;7.744;2023-02-15T03:19:09;83682.66;;;-146.98;82.07
28432;BME280;15664;51.302;7.744;2023-02-15T03:21:49;83601.19;;;-146.98;82.11
28432;BME280;15664;51.302;7.744;2023-02-15T03:24:26;83623.56;;;-146.98;82.31
28432;BME280;15664;51.302;7.744;2023-02-15T03:26:54;83670.44;;;-146.98;82.85
28432;BME280;15664;51.302;7.744;2023-02-15T03:29:24;83650.06;;;-146.98;83.21
28432;BME280;15664;51.302;7.744;2023-02-15T03:32:00;83670.44;;;-146.98;83.21
28432;BME280;15664;51.302;7.744;2023-02-15T03:34:27;83656.16;;;-146.98;83.33
28432;BME280;15664;51.302;7.744;2023-02-15T03:37:11;83637.84;;;-146.98;83.63
28432;BME280;15664;51.302;7.744;2023-02-15T03:39:47;83674.50;;;-146.98;83.93
28432;BME280;15664;51.302;7.744;2023-02-15T03:42:26;83658.19;;;-146.98;83.78
28432;BME280;15664;51.302;7.744;2023-02-15T03:45:08;83678.56;;;-146.98;83.83
28432;BME280;15664;51.302;7.744;2023-02-15T03:47:39;83662.28;;;-146.98;83.92
28432;BME280;15664;51.302;7.744;2023-02-15T03:50:11;83680.59;;;-146.98;84.00
28432;BME280;15664;51.302;7.744;2023-02-15T03:53:03;83666.34;;;-146.98;83.90
28432;BME280;15664;51.302;7.744;2023-02-15T03:55:30;83613.41;;;-146.98;84.49
28432;BME280;15664;51.302;7.744;2023-02-15T03:57:56;83658.19;;;-146.98;84.92
28432;BME280;15664;51.302;7.744;2023-02-15T04:00:48;83670.44;;;-146.98;84.97
28432;BME280;15664;51.302;7.744;2023-02-15T04:03:43;83678.56;;;-146.98;85.33
28432;BME280;15664;51.302;7.744;2023-02-15T04:06:10;83625.63;;;-146.98;85.21
28432;BME280;15664;51.302;7.744;2023-02-15T04:08:36;83629.69;;;-146.98;85.56
28432;BME280;15664;51.302;7.744;2023-02-15T04:11:20;83682.66;;;-146.98;85.52
28432;BME280;15664;51.302;7.744;2023-02-15T04:13:46;83666.34;;;-146.98;85.36
28432;BME280;15664;51.302;7.744;2023-02-15T04:16:11;83694.88;;;-146.98;85.45
28432;BME280;15664;51.302;7.744;2023-02-15T04:18:40;83656.16;;;-146.98;85.42
28432;BME280;15664;51.302;7.744;2023-02-15T04:21:26;83658.19;;;-146.98;85.24
28432;BME280;15664;51.302;7.744;2023-02-15T04:24:11;83705.03;;;-146.98;85.51
28432;BME280;15664;51.302;7.744;2023-02-15T04:26:55;83717.28;;;-146.98;85.60
28432;BME280;15664;51.302;7.744;2023-02-15T04:29:22;83705.03;;;-146.98;85.60
28432;BME280;15664;51.302;7.744;2023-02-15T04:31:49;83686.72;;;-146.98;86.11
28432;BME280;15664;51.302;7.744;2023-02-15T04:34:15;83711.16;;;-146.98;86.61
28432;BME280;15664;51.302;7.744;2023-02-15T04:36:41;83711.16;;;-146.98;86.81
28432;BME280;15664;51.302;7.744;2023-02-15T04:39:07;83705.03;;;-146.98;86.86
28432;BME280;15664;51.302;7.744;2023-02-15T04:41:34;83713.19;;;-146.98;86.59
28432;BME280;15664;51.302;7.744;2023-02-15T04:43:59;83705.03;;;-146.98;86.72
28432;BME280;15664;51.302;7.744;2023-02-15T04:46:26;83713.19;;;-146.98;86.76
28432;BME280;15664;51.302;7.744;2023-02-15T04:48:51;83727.44;;;-146.98;86.87
28432;BME280;15664;51.302;7.744;2023-02-15T04:51:17;83674.50;;;-146.98;86.89
28432;BME280;15664;51.302;7.744;2023-02-15T04:53:42;83713.19;;;-146.98;87.12
28432;BME280;15664;51.302;7.744;2023-02-15T04:56:08;83666.34;;;-146.98;87.38
28432;BME280;15664;51.302;7.744;2023-02-15T04:58:33;83709.13;;;-146.98;87.61
28432;BME280;15664;51.302;7.744;2023-02-15T05:01:00;83733.56;;;-146.98;87.52
28432;BME280;15664;51.302;7.744;2023-02-15T05:03:26;83629.69;;;-146.98;87.45
28432;BME280;15664;51.302;7.744;2023-02-15T05:05:52;83698.94;;;-146.98;87.80
28432;BME280;15664;51.302;7.744;2023-02-15T05:08:17;83715.22;;;-146.98;88.21
28432;BME280;15664;51.302;7.744;2023-02-15T05:10:43;83721.34;;;-146.98;88.24
28432;BME280;15664;51.302;7.744;2023-02-15T05:13:09;83719.31;;;-146.98;88.30
28432;BME280;15664;51.302;7.744;2023-02-15T05:15:34;83711.16;;;-146.98;88.22
28432;BME280;15664;51.302;7.744;2023-02-15T05:18:00;83727.44;;;-146.98;88.05
28432;BME280;15664;51.302;7.744;2023-02-15T05:20:27;83690.78;;;-146.98;88.15
28432;BME280;15664;51.302;7.744;2023-02-15T05:22:55;83715.22;;;-146.98;88.62
28432;BME280;15664;51.302;7.744;2023-02-15T05:25:21;83727.44;;;-146.98;88.98
28432;BME280;15664;51.302;7.744;2023-02-15T05:28:09;83698.94;;;-146.98;89.60
28432;BME280;15664;51.302;7.744;2023-02-15T05:30:45;83733.56;;;-146.98;89.78
28432;BME280;15664;51.302;7.744;2023-02-15T05:33:10;83721.34;;;-146.98;89.61
28432;BME280;15664;51.302;7.744;2023-02-15T05:35:35;83721.34;;;-146.98;89.54
28432;BME280;15664;51.302;7.744;2023-02-15T05:38:01;83735.59;;;-146.98;89.64
28432;BME280;15664;51.302;7.744;2023-02-15T05:40:27;83739.66;;;-146.98;89.67
28432;BME280;15664;51.302;7.744;2023-02-15T05:42:53;83727.44;;;-146.98;89.74
28432;BME280;15664;51.302;7.744;2023-02-15T05:45:19;83751.91;;;-146.98;89.67
28432;BME280;15664;51.302;7.744;2023-02-15T05:47:44;83682.66;;;-146.98;89.63
28432;BME280;15664;51.302;7.744;2023-02-15T05:50:10;83739.66;;;-146.98;89.97
28432;BME280;15664;51.302;7.744;2023-02-15T05:52:36;83727.44;;;-146.98;90.00
28432;BME280;15664;51.302;7.744;2023-02-15T05:55:03;83723.38;;;-146.98;89.83
28432;BME280;15664;51.302;7.744;2023-02-15T05:57:29;83747.81;;;-146.98;89.70
28432;BME280;15664;51.302;7.744;2023-02-15T05:59:55;83755.97;;;-146.98;89.71
28432;BME280;15664;51.302;7.744;2023-02-15T06:02:22;83723.38;;;-146.98;90.07
28432;BME280;15664;51.302;7.744;2023-02-15T06:04:47;83733.56;;;-146.98;90.21
28432;BME280;15664;51.302;7.744;2023-02-15T06:07:13;83719.31;;;-146.98;90.53
28432;BME280;15664;51.302;7.744;2023-02-15T06:09:39;83743.75;;;-146.98;90.79
28432;BME280;15664;51.302;7.744;2023-02-15T06:12:04;83768.19;;;-146.98;90.73
28432;BME280;15664;51.302;7.744;2023-02-15T06:14:30;83745.78;;;-146.98;90.69
28432;BME280;15664;51.302;7.744;2023-02-15T06:16:55;83715.22;;;-146.98;90.85
28432;BME280;15664;51.302;7.744;2023-02-15T06:19:21;83731.53;;;-146.98;90.62
28432;BME280;15664;51.302;7.744;2023-02-15T06:21:48;83709.13;;;-146.98;91.31
28432;BME280;15664;51.302;7.744;2023-02-15T06:24:14;83690.78;;;-146.98;91.34
28432;BME280;15664;51.302;7.744;2023-02-15T06:26:39;83717.28;;;-146.98;91.25
28432;BME280;15664;51.302;7.744;2023-02-15T06:29:05;83764.13;;;-146.98;91.15
28432;BME280;15664;51.302;7.744;2023-02-15T06:31:30;83727.44;;;-146.98;91.12
28432;BME280;15664;51.302;7.744;2023-02-15T06:33:56;83737.63;;;-146.98;91.15
28432;BME280;15664;51.302;7.744;2023-02-15T06:36:27;83745.78;;;-146.98;91.20
28432;BME280;15664;51.302;7.744;2023-02-15T06:38:54;83727.44;;;-146.98;91.00
28432;BME280;15664;51.302;7.744;2023-02-15T06:41:19;83729.50;;;-146.98;90.86
28432;BME280;15664;51.302;7.744;2023-02-15T06:43:45;83760.03;;;-146.98;90.83
28432;BME280;15664;51.302;7.744;2023-02-15T06:46:11;83760.03;;;-146.98;90.97
28432;BME280;15664;51.302;7.744;2023-02-15T06:48:36;83766.16;;;-146.98;90.99
28432;BME280;15664;51.302;7.744;2023-02-15T06:51:02;83709.13;;;-146.98;91.01
28432;BME280;15664;51.302;7.744;2023-02-15T06:53:28;83751.91;;;-146.98;91.09
28432;BME280;15664;51.302;7.744;2023-02-15T06:56:00;83694.88;;;-146.98;91.05
28432;BME280;15664;51.302;7.744;2023-02-15T06:58:26;83737.63;;;-146.98;91.15
28432;BME280;15664;51.302;7.744;2023-02-15T07:00:51;83739.66;;;-146.98;90.91
28432;BME280;15664;51.302;7.744;2023-02-15T07:03:16;83749.84;;;-146.98;90.86
28432;BME280;15664;51.302;7.744;2023-02-15T07:05:42;83727.44;;;-146.98;90.79
28432;BME280;15664;51.302;7.744;2023-02-15T07:08:08;83729.50;;;-146.98;90.79
28432;BME280;15664;51.302;7.744;2023-02-15T07:10:34;83755.97;;;-146.98;90.94
28432;BME280;15664;51.302;7.744;2023-02-15T07:12:59;83758.00;;;-146.98;90.95
28432;BME280;15664;51.302;7.744;2023-02-15T07:15:25;83747.81;;;-146.98;90.96
28432;BME280;15664;51.302;7.744;2023-02-15T07:17:51;83762.06;;;-146.98;91.02
28432;BME280;15664;51.302;7.744;2023-02-15T07:20:19;83721.34;;;-146.98;91.09
28432;BME280;15664;51.302;7.744;2023-02-15T07:22:45;83733.56;;;-146.98;91.10
28432;BME280;15664;51.302;7.744;2023-02-15T07:25:11;83749.84;;;-146.98;91.11
28432;BME280;15664;51.302;7.744;2023-02-15T07:27:37;83784.47;;;-146.98;91.12
28432;BME280;15664;51.302;7.744;2023-02-15T07:30:05;83707.09;;;-146.98;91.49
28432;BME280;15664;51.302;7.744;2023-02-15T07:32:32;83727.44;;;-146.98;91.61
28432;BME280;15664;51.302;7.744;2023-02-15T07:34:58;83698.94;;;-146.98;91.36
28432;BME280;15664;51.302;7.744;2023-02-15T07:37:24;83678.56;;;-146.98;90.91
28432;BME280;15664;51.302;7.744;2023-02-15T07:39:49;83719.31;;;-146.98;90.82
28432;BME280;15664;51.302;7.744;2023-02-15T07:42:14;83703.00;;;-146.98;90.59
28432;BME280;15664;51.302;7.744;2023-02-15T07:44:40;83623.56;;;-146.98;89.74
28432;BME280;15664;51.302;7.744;2023-02-15T07:47:05;83593.03;;;-146.98;87.45
28432;BME280;15664;51.302;7.744;2023-02-15T07:49:31;83601.19;;;-146.98;86.49
28432;BME280;15664;51.302;7.744;2023-02-15T07:51:56;83586.91;;;-146.98;86.74
28432;BME280;15664;51.302;7.744;2023-02-15T07:54:22;83588.97;;;-146.98;86.66
28432;BME280;15664;51.302;7.744;2023-02-15T07:56:48;83503.41;;;-146.98;86.05
28432;BME280;15664;51.302;7.744;2023-02-15T07:59:13;83483.06;;;-146.98;83.85
28432;BME280;15664;51.302;7.744;2023-02-15T08:01:39;83452.50;;;-146.98;80.76
28432;BME280;15664;51.302;7.744;2023-02-15T08:04:06;83411.78;;;-146.98;78.12
28432;BME280;15664;51.302;7.744;2023-02-15T08:06:34;83405.66;;;-146.98;76.89
28432;BME280;15664;51.302;7.744;2023-02-15T08:09:03;83430.09;;;-146.98;75.64
28432;BME280;15664;51.302;7.744;2023-02-15T08:11:31;83381.22;;;-146.98;74.38
28432;BME280;15664;51.302;7.744;2023-02-15T08:14:16;83340.50;;;-146.98;73.66
28432;BME280;15664;51.302;7.744;2023-02-15T08:16:50;83295.69;;;-146.98;72.52
28432;BME280;15664;51.302;7.744;2023-02-15T08:21:51;83297.72;;;-146.98;68.30
28432;BME280;15664;51.302;7.744;2023-02-15T08:24:19;83193.88;;;-146.98;64.88
28432;BME280;15664;51.302;7.744;2023-02-15T08:26:45;83132.78;;;-146.98;64.64
28432;BME280;15664;51.302;7.744;2023-02-15T08:29:13;83104.25;;;-146.98;60.61
28432;BME280;15664;51.302;7.744;2023-02-15T08:31:39;83069.66;;;-146.98;57.76
28432;BME280;15664;51.302;7.744;2023-02-15T08:34:07;83051.31;;;-146.98;55.65
28432;BME280;15664;51.302;7.744;2023-02-15T08:36:33;82992.28;;;-146.98;51.38
28432;BME280;15664;51.302;7.744;2023-02-15T08:39:02;82923.03;;;-146.98;52.44
28432;BME280;15664;51.302;7.744;2023-02-15T08:41:30;82847.69;;;-146.98;50.46
28432;BME280;15664;51.302;7.744;2023-02-15T08:44:00;82745.88;;;-146.98;48.14
28432;BME280;15664;51.302;7.744;2023-02-15T08:46:28;82709.22;;;-146.98;45.16
28432;BME280;15664;51.302;7.744;2023-02-15T08:48:53;82692.94;;;-146.98;43.92
28432;BME280;15664;51.302;7.744;2023-02-15T08:51:25;82668.50;;;-146.98;43.97
28432;BME280;15664;51.302;7.744;2023-02-15T08:53:54;82766.25;;;-146.98;44.62
28432;BME280;15664;51.302;7.744;2023-02-15T08:56:23;82831.41;;;-146.98;45.41
28432;BME280;15664;51.302;7.744;2023-02-15T08:58:49;82861.94;;;-146.98;46.69
28432;BME280;15664;51.302;7.744;2023-02-15T09:01:16;82882.31;;;-146.98;47.14
28432;BME280;15664;51.302;7.744;2023-02-15T09:03:47;82733.66;;;-146.98;45.69
28432;BME280;15664;51.302;7.744;2023-02-15T09:06:14;82739.78;;;-146.98;44.74
28432;BME280;15664;51.302;7.744;2023-02-15T09:08:40;82772.34;;;-146.98;44.50
28432;BME280;15664;51.302;7.744;2023-02-15T09:13:34;82660.34;;;-146.98;43.85
28432;BME280;15664;51.302;7.744;2023-02-15T09:16:02;82686.84;;;-146.98;43.14
28432;BME280;15664;51.302;7.744;2023-02-15T09:18:30;82629.81;;;-146.98;43.19
28432;BME280;15664;51.302;7.744;2023-02-15T09:20:56;82589.09;;;-146.98;42.25
28432;BME280;15664;51.302;7.744;2023-02-15T09:23:21;82587.06;;;-146.98;42.20
28432;BME280;15664;51.302;7.744;2023-02-15T09:25:46;82580.94;;;-146.98;42.12
28432;BME280;15664;51.302;7.744;2023-02-15T09:28:12;82576.88;;;-146.98;41.80
28432;BME280;15664;51.302;7.744;2023-02-15T09:30:37;82652.22;;;-146.98;42.26
28432;BME280;15664;51.302;7.744;2023-02-15T09:33:03;82678.69;;;-146.98;42.48
28432;BME280;15664;51.302;7.744;2023-02-15T09:35:28;82576.88;;;-146.98;41.83
28432;BME280;15664;51.302;7.744;2023-02-15T09:37:54;82574.84;;;-146.98;41.28
28432;BME280;15664;51.302;7.744;2023-02-15T09:40:20;82446.56;;;-146.98;40.45
28432;BME280;15664;51.302;7.744;2023-02-15T09:45:56;82257.22;;;-146.98;39.03
28432;BME280;15664;51.302;7.744;2023-02-15T09:48:43;82135.06;;;-146.98;35.70
28432;BME280;15664;51.302;7.744;2023-02-15T09:54:26;81923.34;;;-146.98;34.63
28432;BME280;15664;51.302;7.744;2023-02-15T09:57:05;81772.69;;;-146.98;32.74
28432;BME280;15664;51.302;7.744;2023-02-15T10:05:05;81449.03;;;-146.98;31.09
28432;BME280;15664;51.302;7.744;2023-02-15T10:11:20;81457.16;;;-146.98;30.98
28432;BME280;15664;51.302;7.744;2023-02-15T10:20:08;81463.28;;;-146.98;30.06
28432;BME280;15664;51.302;7.744;2023-02-15T10:25:28;81369.63;;;-146.98;31.14
28432;BME280;15664;51.302;7.744;2023-02-15T10:28:01;81465.31;;;-146.98;30.45
28432;BME280;15664;51.302;7.744;2023-02-15T10:30:36;81343.19;;;-146.98;30.24
28432;BME280;15664;51.302;7.744;2023-02-15T10:33:17;81510.09;;;-146.98;30.44
28432;BME280;15664;51.302;7.744;2023-02-15T10:36:31;81544.69;;;-146.98;30.73
28432;BME280;15664;51.302;7.744;2023-02-15T10:39:20;81479.56;;;-146.98;31.29
28432;BME280;15664;51.302;7.744;2023-02-15T10:42:06;81212.91;;;-146.98;29.24
28432;BME280;15664;51.302;7.744;2023-02-15T10:47:41;80958.50;;;-146.98;28.34
28432;BME280;15664;51.302;7.744;2023-02-15T10:50:23;80840.44;;;-146.98;28.22
28432;BME280;15664;51.302;7.744;2023-02-15T10:53:56;80750.88;;;-146.98;27.92
28432;BME280;15664;51.302;7.744;2023-02-15T10:56:23;80907.59;;;-146.98;28.09
28432;BME280;15664;51.302;7.744;2023-02-15T10:59:14;81243.44;;;-146.98;29.24
28432;BME280;15664;51.302;7.744;2023-02-15T11:01:52;81135.56;;;-146.98;29.62
28432;BME280;15664;51.302;7.744;2023-02-15T11:04:44;81052.13;;;-146.98;28.86
28432;BME280;15664;51.302;7.744;2023-02-15T11:10:07;81043.97;;;-146.98;29.07
28432;BME280;15664;51.302;7.744;2023-02-15T11:12:41;80897.44;;;-146.98;28.24
28432;BME280;15664;51.302;7.744;2023-02-15T11:15:19;81011.41;;;-146.98;29.24
28432;BME280;15664;51.302;7.744;2023-02-15T11:17:51;81003.25;;;-146.98;28.81
28432;BME280;15664;51.302;7.744;2023-02-15T11:20:29;80803.81;;;-146.98;27.66
28432;BME280;15664;51.302;7.744;2023-02-15T11:22:56;80870.97;;;-146.98;27.69
28432;BME280;15664;51.302;7.744;2023-02-15T11:25:34;80840.44;;;-146.98;27.64
28432;BME280;15664;51.302;7.744;2023-02-15T11:28:04;80901.50;;;-146.98;28.33
28432;BME280;15664;51.302;7.744;2023-02-15T11:30:42;80832.31;;;-146.98;27.75
28432;BME280;15664;51.302;7.744;2023-02-15T11:33:38;80801.78;;;-146.98;27.77
28432;BME280;15664;51.302;7.744;2023-02-15T11:36:14;80734.59;;;-146.98;27.30
28432;BME280;15664;51.302;7.744;2023-02-15T11:38:42;80630.81;;;-146.98;27.00
28432;BME280;15664;51.302;7.744;2023-02-15T11:41:16;80653.19;;;-146.98;26.32
28432;BME280;15664;51.302;7.744;2023-02-15T11:44:06;80689.84;;;-146.98;27.47
28432;BME280;15664;51.302;7.744;2023-02-15T11:46:33;80649.13;;;-146.98;26.85
28432;BME280;15664;51.302;7.744;2023-02-15T11:48:59;80980.88;;;-146.98;27.67
28432;BME280;15664;51.302;7.744;2023-02-15T11:51:26;80962.56;;;-146.98;27.22
28432;BME280;15664;51.302;7.744;2023-02-15T11:53:54;81127.41;;;-146.98;28.31
28432;BME280;15664;51.302;7.744;2023-02-15T11:56:22;80915.75;;;-146.98;27.86
28432;BME280;15664;51.302;7.744;2023-02-15T11:58:54;81109.09;;;-146.98;27.95
28432;BME280;15664;51.302;7.744;2023-02-15T12:01:31;81129.47;;;-146.98;28.24
28432;BME280;15664;51.302;7.744;2023-02-15T12:04:09;80930.00;;;-146.98;26.98
28432;BME280;15664;51.302;7.744;2023-02-15T12:06:46;80901.50;;;-146.98;26.90
28432;BME280;15664;51.302;7.744;2023-02-15T12:09:24;80954.41;;;-146.98;27.39
28432;BME280;15664;51.302;7.744;2023-02-15T12:11:53;80978.84;;;-146.98;27.45
28432;BME280;15664;51.302;7.744;2023-02-15T12:14:18;80805.84;;;-146.98;27.42
28432;BME280;15664;51.302;7.744;2023-02-15T12:16:49;80879.13;;;-146.98;26.68
28432;BME280;15664;51.302;7.744;2023-02-15T12:19:37;80803.81;;;-146.98;27.71
28432;BME280;15664;51.302;7.744;2023-02-15T12:22:06;80795.66;;;-146.98;26.59
28432;BME280;15664;51.302;7.744;2023-02-15T12:24:46;80816.03;;;-146.98;26.54
28432;BME280;15664;51.302;7.744;2023-02-15T12:27:24;80978.84;;;-146.98;26.97
28432;BME280;15664;51.302;7.744;2023-02-15T12:32:51;80962.56;;;-146.98;26.44
28432;BME280;15664;51.302;7.744;2023-02-15T12:35:27;81139.63;;;-146.98;27.44
28432;BME280;15664;51.302;7.744;2023-02-15T12:37:57;81141.66;;;-146.98;27.46
28432;BME280;15664;51.302;7.744;2023-02-15T12:40:29;81170.16;;;-146.98;27.57
28432;BME280;15664;51.302;7.744;2023-02-15T12:42:55;81031.75;;;-146.98;27.45
28432;BME280;15664;51.302;7.744;2023-02-15T12:45:32;81137.59;;;-146.98;26.95
28432;BME280;15664;51.302;7.744;2023-02-15T12:50:40;81141.66;;;-146.98;27.16
28432;BME280;15664;51.302;7.744;2023-02-15T12:56:04;80984.94;;;-146.98;27.43
28432;BME280;15664;51.302;7.744;2023-02-15T12:58:31;81131.50;;;-146.98;28.12
28432;BME280;15664;51.302;7.744;2023-02-15T13:04:01;81300.44;;;-146.98;27.49
28432;BME280;15664;51.302;7.744;2023-02-15T13:06:28;81235.31;;;-146.98;27.88
28432;BME280;15664;51.302;7.744;2023-02-15T13:08:58;81176.28;;;-146.98;27.50
28432;BME280;15664;51.302;7.744;2023-02-15T13:11:31;81145.75;;;-146.98;27.43
28432;BME280;15664;51.302;7.744;2023-02-15T13:14:19;81084.69;;;-146.98;26.68
28432;BME280;15664;51.302;7.744;2023-02-15T13:16:48;81046.00;;;-146.98;26.68
28432;BME280;15664;51.302;7.744;2023-02-15T13:19:18;81084.69;;;-146.98;26.90
28432;BME280;15664;51.302;7.744;2023-02-15T13:21:45;81043.97;;;-146.98;26.39
28432;BME280;15664;51.302;7.744;2023-02-15T13:24:33;81206.81;;;-146.98;26.71
28432;BME280;15664;51.302;7.744;2023-02-15T13:27:00;81214.94;;;-146.98;27.28
28432;BME280;15664;51.302;7.744;2023-02-15T13:29:28;81308.56;;;-146.98;27.42
28432;BME280;15664;51.302;7.744;2023-02-15T13:31:57;81353.34;;;-146.98;27.71
28432;BME280;15664;51.302;7.744;2023-02-15T13:34:32;81194.59;;;-146.98;27.44
28432;BME280;15664;51.302;7.744;2023-02-15T13:37:08;81239.38;;;-146.98;27.41
28432;BME280;15664;51.302;7.744;2023-02-15T13:39:58;81312.66;;;-146.98;27.39
28432;BME280;15664;51.302;7.744;2023-02-15T13:42:31;81153.88;;;-146.98;27.04
28432;BME280;15664;51.302;7.744;2023-02-15T13:48:10;81037.88;;;-146.98;26.46
28432;BME280;15664;51.302;7.744;2023-02-15T13:51:00;81092.81;;;-146.98;26.52
28432;BME280;15664;51.302;7.744;2023-02-15T13:56:54;81031.75;;;-146.98;26.37
28432;BME280;15664;51.302;7.744;2023-02-15T13:59:47;80917.78;;;-146.98;25.93
28432;BME280;15664;51.302;7.744;2023-02-15T14:02:48;80557.56;;;-146.98;25.13
28432;BME280;15664;51.302;7.744;2023-02-15T14:05:25;80824.16;;;-146.98;25.84
28432;BME280;15664;51.302;7.744;2023-02-15T14:08:04;81064.31;;;-146.98;26.13
28432;BME280;15664;51.302;7.744;2023-02-15T14:16:21;81508.06;;;-146.98;28.64
28432;BME280;15664;51.302;7.744;2023-02-15T14:19:19;81577.25;;;-146.98;29.20